Record high temperature 107.1°F Record low temperature 10.6°F Record high gust 49.5 mph Record high average 28.3 mph Record daily rain 11.65 in. Record low windchill 2.7°F Record high barometer 30.818 in. Record low barometer 29.078 in.
Daily high pressure 30.164 in. Daily low pressure 30.116 in. Daily low windchill 59.1°F Daily high heat index 68.8°F Daily high gust speed 1.2 mph SSE Daily high average speed 1.0 mph SSE
On the Greenway Weather data
LAST READING AT TIME: 7:33 AM DATE: July 22 2017, time of next update: 7:34 am
Current WeatherOvercast/Dry Current Temperature 68.2°F (20.1°C) (Heat Index 73.7°F ), Apparent temp 70.7°F , Apparent temp solar 70.7 °F
Maximum Temperature (since midnight)68.8°F at: 12:00 AM Minimum Temperature (since midnight)59.1°F at: 5:44 AM
Average windspeed (ten minute)0.0 mph Wind Direction (ten minute)SSE (158°)
Heat Index 73.7°F Maximum Gust (last hour)1.0 mph at: 7:08AM
Maximum Gust (since midnight)1.2 mph at: 6:53 AM Maximum 1 minute average (since midnight)1.0 mph at: 7:08 AM
Rainfall (last hour)0.00 in. (0.0 mm) Rainfall (since midnight)0.00 in. (0.0 mm) ---
Rainfall This month 0.00 in. (0.0 mm) Rainfall To date this year 55.53 in. (1410.5 mm)
Maximum rain per minute (last hour)0.00 in/min Maximum rain per hour (last 6 hours)0.00 in/hour
Yesterdays rainfall 0.00 in DewPoint 58.4°F (Wet Bulb :62.4°F )
Humidity 71 %, Humidex 75.0°F Barometer corrected to msl30.162 in. (1021.4 hPa)
Pressure change +0.01 in. (last hour) Trend (last hour)STEADY
Pressure change (last 12 hours)+0.09 in Pressure change (last 6 hours)+0.03 in
Current Indoor Temp. 84.7°F
Current Indoor Hum. 33%
Current Solar 0 W/Mē
Maximum solar (since midnight) 0 W/Mē Minimum solar (since midnight)0 W/Mē
Current 00:00 hours of sunshine today, current sky: Overcast
Sunshine hours for the year: 00:00 hrs Sunshine hours for the month: 00:00 hrs
Current evapotranspiration 0.02 inches per day. Yesterday's reading 0.07

This page is updated from recent data collected by a DAVIS VANTAGE PRO weather station Use the Reload or Refresh facility on your browser to retrieve the latest data.


Click here for the last 24 hour graph
Click here for the last 48 hour graph
Click here for the last 72 hour graph
Click here for the month to date graph


Weather report/warning/Metars

Expires:201707221730;;642609
FPUS56 KPQR 221034
ZFPPQR

Zone Forecasts for Northwest Oregon and Southwest Washington
National Weather Service Portland Oregon
334 AM PDT Sat Jul 22 2017

Spot Temperatures are for Today, Tonight, Sunday, Sunday Night, 
and Monday.


ORZ006-WAZ039-221730-
Greater Portland Metro Area-Greater Vancouver Area-
Including the cities of Hillsboro, Portland, Wilsonville, 
Oregon City, Gresham, Troutdale, Vancouver, Battle Ground, 
Ridgefield, Washougal, Yacolt, and Amboy
334 AM PDT Sat Jul 22 2017

.TODAY...Partly cloudy. Highs 85 to 90. North wind 5 to 10 mph. 
.TONIGHT...Mostly clear. Lows around 60. Northwest wind 5 to 15 mph.
.SUNDAY...Partly cloudy in the morning, then mostly sunny. Highs
around 85. North wind 5 to 15 mph. Gusts to 30 mph in the afternoon.
.SUNDAY NIGHT...Mostly clear. Lows 55 to 60. North wind 10 to 15 mph
with gusts to 30 mph decreasing to 5 to 10 mph after midnight. 
.MONDAY...Mostly sunny. Highs around 90. North wind 5 to 15 mph. 
.MONDAY NIGHT...Mostly clear. Lows 55 to 60. 
.TUESDAY...Mostly sunny. Highs around 85. 
.TUESDAY NIGHT...Mostly clear in the evening, then mostly cloudy.
Lows 55 to 60. 
.WEDNESDAY...Mostly cloudy in the morning, then mostly sunny. Highs
around 80. 
.WEDNESDAY NIGHT...Partly cloudy in the evening, then mostly cloudy.
Lows 50 to 55. 
.THURSDAY...Mostly cloudy in the morning, then partly cloudy. Highs
around 80. 
.THURSDAY NIGHT...Partly cloudy. Lows 50 to 55. 
.FRIDAY...Mostly sunny. Highs around 80. 

&&
                  TEMPERATURE         
Portland          88  64  85  60  91
Hillsboro         89  59  87  55  91

$$
=


PORTLAND-HILLSBORO AIRPORT, OR, United States (KHIO) 45-33N 122-57W 68M
Jul 22, 2017 - 09:53 AM EDT / 2017.07.22 1353 UTC
Wind: Calm:0
Visibility: 10 mile(s):0
Sky conditions: clear
Temperature: 59.0 F (15.0 C)
Dew Point: 54.0 F (12.2 C)
Relative Humidity: 83%
Pressure (altimeter): 30.17 in. Hg (1021 hPa)
ob: KHIO 221353Z 00000KT 10SM CLR 15/12 A3017 RMK AO2 SLP213 T01500122 
cycle: 14
PORTLAND INTERNATIONAL  AIRPORT, OR, United States (KPDX) 45-35N 122-36W 7M
Jul 22, 2017 - 09:53 AM EDT / 2017.07.22 1353 UTC
Wind: Calm:0
Visibility: 10 mile(s):0
Sky conditions: mostly clear
Temperature: 63.0 F (17.2 C)
Dew Point: 55.9 F (13.3 C)
Relative Humidity: 77%
Pressure (altimeter): 30.17 in. Hg (1021 hPa)
ob: KPDX 221353Z 00000KT 10SM FEW060 FEW250 17/13 A3017 RMK AO2 SLP216 T01720133
cycle: 14
PORTLAND-TROUTDALE AIRPORT, OR, United States (KTTD) 45-33N 122-25W 14M
Jul 22, 2017 - 09:53 AM EDT / 2017.07.22 1353 UTC
Wind: Calm:0
Visibility: 10 mile(s):0
Sky conditions: clear
Temperature: 62.1 F (16.7 C)
Dew Point: 55.0 F (12.8 C)
Relative Humidity: 77%
Pressure (altimeter): 30.17 in. Hg (1021 hPa)
ob: KTTD 221353Z 00000KT 10SM CLR 17/13 A3017 RMK AO2 SLP215 T01670128
cycle: 14
MCMINNVILLE MUNICIPAL AIRPORT , OR, United States (KMMV) 45-12N 123-08W 48M
Jul 22, 2017 - 09:53 AM EDT / 2017.07.22 1353 UTC
Wind: from the W (280 degrees) at 5 MPH (4 KT):0
Visibility: 10 mile(s):0
Sky conditions: clear
Temperature: 60.1 F (15.6 C)
Dew Point: 53.1 F (11.7 C)
Relative Humidity: 77%
Pressure (altimeter): 30.18 in. Hg (1022 hPa)
ob: KMMV 221353Z AUTO 28004KT 10SM CLR 16/12 A3018 RMK AO2 SLP218 T01560117
cycle: 14
SALEM MCNARY FIELD, OR, United States (KSLE) 44-54N 123-00W 59M
Jul 22, 2017 - 09:56 AM EDT / 2017.07.22 1356 UTC
Wind: from the NNW (340 degrees) at 3 MPH (3 KT):0
Visibility: 10 mile(s):0
Sky conditions: clear
Temperature: 63.0 F (17.2 C)
Dew Point: 52.0 F (11.1 C)
Relative Humidity: 67%
Pressure (altimeter): 30.16 in. Hg (1021 hPa)
ob: KSLE 221356Z AUTO 34003KT 10SM CLR 17/11 A3016 RMK AO2 SLP213 T01720111
cycle: 14
REDMOND ROBERTS FIELD, OR, United States (KRDM) 44-15N 121-08W
Jul 22, 2017 - 09:56 AM EDT / 2017.07.22 1356 UTC
Wind: from the S (170 degrees) at 6 MPH (5 KT):0
Visibility: 10 mile(s):0
Sky conditions: clear
Temperature: 55.0 F (12.8 C)
Dew Point: 39.0 F (3.9 C)
Relative Humidity: 54%
Pressure (altimeter): 30.24 in. Hg (1024 hPa)
ob: KRDM 221356Z 17005KT 10SM CLR 13/04 A3024 RMK AO2 SLP217 T01280039
cycle: 14

Date: 7/22/2017
Sunrise at:
05:44 am

Sunset at:
08:51 pm

Moonrise at:
05:00 am 07/22/17

Moonset at:
07:15 pm 07/21/17

First Quarter  July 1 2017
Full moon  July 9 2017
Last QuarterJuly 16 2017
New moon July 23 2017
Moon age: 28 days,6 hours,24 minutes,2%
Hours of possible daylight today was 15:07:00



Use the RELOAD facility on your browser to retrieve the latest data.

Click here for current Fire weather info
Click here for the daily CLIMATOLOGICAL SUMMARY
Click here for a daily update of the averages/extremes to date for the month




Created by "Weather Display" software version 10.37R at this start time/date 5:42:06 PM 2/5/2017




On The Greenway Weather Web Site

 
 
HELP US OUT
Help us keep this weather station on the web. for the Tigard / Portland internet users to use. If you would like to help, click the donate button below
 
This site is purely funded by donations and by myself (Ray Cooper)
Anything you can do will help keep this station on the net
Average cost per year is $665 to publish and host this site excluding the cost of the weather equipment
Buyastrostuff.com is kind enough to host our DNS and email at no cost.
THANKS GUYS & Gals for helping
Have a Question,or just want to talk. Contact me at:
Ray Cooper @ Buyastrostuff.com
 

Weather Underground PWS KORTIGAR12 Weather Underground PWS KORTIGAR12